createdAt,value
2019-01-15T00:00:33.570Z,86.17
2019-01-15T00:03:02.686Z,85.92
2019-01-15T00:05:31.829Z,85.92
2019-01-15T00:08:00.884Z,86.29
2019-01-15T00:10:29.970Z,86.35
2019-01-15T00:12:59.073Z,86.12
2019-01-15T00:15:28.168Z,86.28
2019-01-15T00:17:57.271Z,86.34
2019-01-15T00:20:26.366Z,86.04
2019-01-15T00:22:55.475Z,86.41
2019-01-15T00:25:24.526Z,86.58
2019-01-15T00:27:53.750Z,86.43
2019-01-15T00:30:22.909Z,86.31
2019-01-15T00:32:52.014Z,86.48
2019-01-15T00:35:21.162Z,86.66
2019-01-15T00:37:50.262Z,86.75
2019-01-15T00:40:19.311Z,86.95
2019-01-15T00:42:48.973Z,86.72
2019-01-15T00:45:18.051Z,86.75
2019-01-15T00:47:47.145Z,86.56
2019-01-15T00:50:16.269Z,86.48
2019-01-15T00:52:45.356Z,86.58
2019-01-15T00:55:14.487Z,86.55
2019-01-15T00:57:43.588Z,86.78
2019-01-15T01:00:18.100Z,86.94
2019-01-15T01:02:47.222Z,86.94
2019-01-15T01:05:16.419Z,86.85
2019-01-15T01:07:45.493Z,86.77
2019-01-15T01:10:14.768Z,86.96
2019-01-15T01:12:43.884Z,86.95
2019-01-15T01:15:14.479Z,87.10
2019-01-15T01:17:43.569Z,86.86
2019-01-15T01:20:14.998Z,86.92
2019-01-15T01:22:44.103Z,86.57
2019-01-15T01:25:13.429Z,86.30
2019-01-15T01:27:42.537Z,86.02
2019-01-15T01:30:17.158Z,85.60
2019-01-15T01:32:46.230Z,85.74
2019-01-15T01:35:15.297Z,85.41
2019-01-15T01:37:44.344Z,85.35
2019-01-15T01:40:18.639Z,84.84
2019-01-15T01:42:47.804Z,85.04
2019-01-15T01:45:17.418Z,84.72
2019-01-15T01:47:46.481Z,84.49
2019-01-15T01:50:15.707Z,84.52
2019-01-15T01:52:44.920Z,84.80
2019-01-15T01:55:15.239Z,84.14
2019-01-15T01:57:44.481Z,84.56
2019-01-15T02:00:15.858Z,84.45
2019-01-15T02:02:44.999Z,84.49
2019-01-15T02:05:14.116Z,84.62
2019-01-15T02:07:43.214Z,84.10
2019-01-15T02:10:14.811Z,83.91
2019-01-15T02:12:43.876Z,84.25
2019-01-15T02:15:14.448Z,84.13
2019-01-15T02:17:43.505Z,84.19
2019-01-15T02:20:13.600Z,84.22
2019-01-15T02:22:42.684Z,84.42
2019-01-15T02:25:11.772Z,84.23
2019-01-15T02:27:43.800Z,84.25
2019-01-15T02:30:18.285Z,84.31
2019-01-15T02:32:47.375Z,84.47
2019-01-15T02:35:16.434Z,84.46
2019-01-15T02:37:45.698Z,84.56
2019-01-15T02:40:14.802Z,84.92
2019-01-15T02:42:46.744Z,84.85
2019-01-15T02:45:16.506Z,85.00
2019-01-15T02:47:45.642Z,84.64
2019-01-15T02:50:16.047Z,84.62
2019-01-15T02:52:45.126Z,84.62
2019-01-15T02:55:14.249Z,84.66
2019-01-15T02:57:43.474Z,85.00
2019-01-15T03:00:16.018Z,84.80
2019-01-15T03:02:45.096Z,85.04
2019-01-15T03:05:14.369Z,84.93
2019-01-15T03:07:43.511Z,84.85
2019-01-15T03:10:13.859Z,84.98
2019-01-15T03:12:44.717Z,85.12
2019-01-15T03:15:13.834Z,85.06
2019-01-15T03:17:42.905Z,85.08
2019-01-15T03:20:12.047Z,85.14
2019-01-15T03:22:41.123Z,85.06
2019-01-15T03:25:10.366Z,85.03
2019-01-15T03:27:39.433Z,85.41
2019-01-15T03:30:11.205Z,85.41
2019-01-15T03:32:40.294Z,85.25
2019-01-15T03:35:09.359Z,85.75
2019-01-15T03:37:38.419Z,85.76
2019-01-15T03:40:10.505Z,85.61
2019-01-15T03:42:39.586Z,85.55
2019-01-15T03:45:08.761Z,86.13
2019-01-15T03:47:37.859Z,85.65
2019-01-15T03:50:07.542Z,86.00
2019-01-15T03:52:36.641Z,86.34
2019-01-15T03:55:06.064Z,86.15
2019-01-15T03:57:35.100Z,86.31
2019-01-15T04:00:05.615Z,86.75
2019-01-15T04:02:34.923Z,87.09
2019-01-15T04:05:04.848Z,87.48
2019-01-15T04:07:33.982Z,87.70
2019-01-15T04:10:03.096Z,88.06
2019-01-15T04:12:32.145Z,87.97
2019-01-15T04:15:01.201Z,87.73
2019-01-15T04:17:30.308Z,87.80
2019-01-15T04:19:59.446Z,88.10
2019-01-15T04:22:28.570Z,87.83
2019-01-15T04:24:57.631Z,87.83
2019-01-15T04:27:26.702Z,88.04
2019-01-15T04:29:55.743Z,88.17
2019-01-15T04:32:24.826Z,88.20
2019-01-15T04:34:53.881Z,88.25
2019-01-15T04:37:22.964Z,88.30
2019-01-15T04:39:52.157Z,88.43
2019-01-15T04:42:21.255Z,88.07
2019-01-15T04:44:50.300Z,88.12
2019-01-15T04:47:19.377Z,88.28
2019-01-15T04:49:48.428Z,88.29
2019-01-15T04:52:18.077Z,88.30
2019-01-15T04:54:47.249Z,88.34
2019-01-15T04:57:16.334Z,88.41
2019-01-15T04:59:45.559Z,88.69
2019-01-15T05:02:14.644Z,88.39
2019-01-15T05:04:43.704Z,88.44
2019-01-15T05:07:12.788Z,88.28
2019-01-15T05:09:41.877Z,88.19
2019-01-15T05:12:10.945Z,88.54
2019-01-15T05:14:40.016Z,88.20
2019-01-15T05:17:09.088Z,88.06
2019-01-15T05:19:38.165Z,87.61
2019-01-15T05:22:07.259Z,87.46
2019-01-15T05:24:36.325Z,87.04
2019-01-15T05:27:05.383Z,86.82
2019-01-15T05:29:34.521Z,86.78
2019-01-15T05:32:03.518Z,86.51
2019-01-15T05:34:32.646Z,86.62
2019-01-15T05:37:01.880Z,86.87
2019-01-15T05:39:30.955Z,86.73
2019-01-15T05:42:00.227Z,86.19
2019-01-15T05:44:29.382Z,85.71
2019-01-15T05:46:58.607Z,85.79
2019-01-15T05:49:27.693Z,85.60
2019-01-15T05:51:56.772Z,85.82
2019-01-15T05:54:25.901Z,85.80
2019-01-15T05:56:54.978Z,85.94
2019-01-15T05:59:24.064Z,85.87
2019-01-15T06:01:53.122Z,85.70
2019-01-15T06:04:22.202Z,85.95
2019-01-15T06:06:51.269Z,86.09
2019-01-15T06:09:20.341Z,85.64
2019-01-15T06:11:49.443Z,85.36
2019-01-15T06:14:18.516Z,85.14
2019-01-15T06:16:47.599Z,85.40
2019-01-15T06:19:16.655Z,85.33
2019-01-15T06:21:45.750Z,85.24
2019-01-15T06:24:14.829Z,85.49
2019-01-15T06:26:43.922Z,85.87
2019-01-15T06:29:13.260Z,85.90
2019-01-15T06:31:43.250Z,86.00
2019-01-15T06:34:12.326Z,86.12
2019-01-15T06:36:41.490Z,85.98
2019-01-15T06:39:10.780Z,85.43
2019-01-15T06:41:39.891Z,85.54
2019-01-15T06:44:08.964Z,85.63
2019-01-15T06:46:38.016Z,85.47
2019-01-15T06:49:07.152Z,85.61
2019-01-15T06:51:36.289Z,85.00
2019-01-15T06:54:05.450Z,84.65
2019-01-15T06:56:34.491Z,84.64
2019-01-15T06:59:03.658Z,84.30
2019-01-15T07:01:32.707Z,84.48
2019-01-15T07:04:01.954Z,84.28
2019-01-15T07:06:31.093Z,84.00
2019-01-15T07:09:00.154Z,84.16
2019-01-15T07:11:29.213Z,83.88
2019-01-15T07:13:58.421Z,84.19
2019-01-15T07:16:27.557Z,83.96
2019-01-15T07:18:56.620Z,84.00
2019-01-15T07:21:25.792Z,83.79
2019-01-15T07:23:55.051Z,83.70
2019-01-15T07:26:24.112Z,83.76
2019-01-15T07:28:53.180Z,83.51
2019-01-15T07:31:22.220Z,83.59
2019-01-15T07:33:51.387Z,83.64
2019-01-15T07:36:20.455Z,83.63
2019-01-15T07:38:49.605Z,84.11
2019-01-15T07:41:18.655Z,84.10
2019-01-15T07:43:47.783Z,83.58
2019-01-15T07:46:16.818Z,83.14
2019-01-15T07:48:45.909Z,83.67
2019-01-15T07:51:14.987Z,83.48
2019-01-15T07:53:44.055Z,83.23
2019-01-15T07:56:13.267Z,83.57
2019-01-15T07:58:42.336Z,83.85
2019-01-15T08:01:11.397Z,83.74
2019-01-15T08:03:40.936Z,83.25
2019-01-15T08:06:10.063Z,82.21
2019-01-15T08:08:39.181Z,82.92
2019-01-15T08:11:08.252Z,82.46
2019-01-15T08:13:37.355Z,82.86
2019-01-15T08:16:06.485Z,83.04
2019-01-15T08:18:35.536Z,83.32
2019-01-15T08:21:04.626Z,83.36
2019-01-15T08:23:33.720Z,83.14
2019-01-15T08:26:02.836Z,83.61
2019-01-15T08:28:31.900Z,83.57
2019-01-15T08:33:35.250Z,83.70
2019-01-15T08:36:04.353Z,83.36
2019-01-15T08:38:33.426Z,83.36
2019-01-15T08:41:02.690Z,83.43
2019-01-15T08:43:31.767Z,82.75
2019-01-15T08:46:00.875Z,82.24
2019-01-15T08:48:32.173Z,82.06
2019-01-15T08:51:01.793Z,82.21
2019-01-15T08:53:31.081Z,82.19
2019-01-15T08:56:01.080Z,81.63
2019-01-15T08:58:30.176Z,82.09
2019-01-15T09:00:59.230Z,81.55
2019-01-15T09:03:28.304Z,81.38
2019-01-15T09:05:57.370Z,81.98
2019-01-15T09:08:26.476Z,81.51
2019-01-15T09:10:55.602Z,81.17
2019-01-15T09:13:24.709Z,81.16
2019-01-15T09:15:53.773Z,81.06
2019-01-15T09:18:22.892Z,80.56
2019-01-15T09:20:52.117Z,80.54
2019-01-15T09:23:21.207Z,80.54
2019-01-15T09:25:50.285Z,79.95
2019-01-15T09:28:19.335Z,79.91
2019-01-15T09:30:48.487Z,79.81
2019-01-15T09:33:17.533Z,80.07
2019-01-15T09:35:46.658Z,80.03
2019-01-15T09:38:15.900Z,79.30
2019-01-15T09:40:45.021Z,79.41
2019-01-15T09:43:14.097Z,79.84
2019-01-15T09:45:43.222Z,79.02
2019-01-15T09:48:16.388Z,78.97
2019-01-15T09:50:45.562Z,78.48
2019-01-15T09:53:14.620Z,78.87
2019-01-15T09:55:43.728Z,78.46
2019-01-15T09:58:12.781Z,78.91
2019-01-15T10:00:41.867Z,79.19
2019-01-15T10:03:10.905Z,78.61
2019-01-15T10:05:39.979Z,78.83
2019-01-15T10:08:09.245Z,78.21
2019-01-15T10:10:38.350Z,77.52
2019-01-15T10:13:07.402Z,77.65
2019-01-15T10:15:36.495Z,77.87
2019-01-15T10:18:05.859Z,77.25
2019-01-15T10:20:34.955Z,76.75
2019-01-15T10:23:04.101Z,77.85
2019-01-15T10:25:33.954Z,77.84
2019-01-15T10:28:03.121Z,77.53
2019-01-15T10:31:13.486Z,76.98
2019-01-15T10:33:47.989Z,76.99
2019-01-15T10:36:15.492Z,77.55
2019-01-15T10:38:44.606Z,77.15
2019-01-15T10:41:13.648Z,76.58
2019-01-15T10:43:42.743Z,77.41
2019-01-15T10:46:11.851Z,76.77
2019-01-15T10:48:40.986Z,76.55
2019-01-15T10:51:10.104Z,76.33
2019-01-15T10:53:39.294Z,76.35
2019-01-15T10:56:08.383Z,75.92
2019-01-15T10:58:37.511Z,75.68
2019-01-15T11:01:06.649Z,76.18
2019-01-15T11:03:35.746Z,75.71
2019-01-15T11:06:04.903Z,75.55
2019-01-15T11:08:33.984Z,74.87
2019-01-15T11:11:03.147Z,75.02
2019-01-15T11:13:32.311Z,74.68
2019-01-15T11:16:01.432Z,74.63
2019-01-15T11:18:30.522Z,74.47
2019-01-15T11:20:59.699Z,74.47
2019-01-15T11:23:28.783Z,73.84
2019-01-15T11:25:57.920Z,74.60
2019-01-15T11:28:26.968Z,74.14
2019-01-15T11:30:56.120Z,73.66
2019-01-15T11:33:25.214Z,73.57
2019-01-15T11:35:54.299Z,73.67
2019-01-15T11:38:23.347Z,74.08
2019-01-15T11:40:52.569Z,73.70
2019-01-15T11:43:21.656Z,74.07
2019-01-15T11:45:50.841Z,73.14
2019-01-15T11:48:19.893Z,73.42
2019-01-15T11:50:49.073Z,72.94
2019-01-15T11:53:18.113Z,73.12
2019-01-15T11:55:47.210Z,72.94
2019-01-15T11:58:16.317Z,72.15
2019-01-15T12:01:07.683Z,72.18
2019-01-15T12:03:55.784Z,71.93
2019-01-15T12:06:42.749Z,71.83
2019-01-15T12:09:26.253Z,71.86
2019-01-15T12:12:13.032Z,71.99
2019-01-15T12:15:10.617Z,72.53
2019-01-15T12:17:56.603Z,72.33
2019-01-15T12:20:37.277Z,71.62
2019-01-15T12:23:24.215Z,72.08
2019-01-15T12:26:21.522Z,71.31
2019-01-15T12:29:15.612Z,70.96
2019-01-15T12:32:22.129Z,70.96
2019-01-15T12:35:22.404Z,71.81
2019-01-15T12:38:09.025Z,71.32
2019-01-15T12:40:59.853Z,71.43
2019-01-15T12:43:50.240Z,71.80
2019-01-15T12:46:50.365Z,71.46
2019-01-15T12:49:38.430Z,72.10
2019-01-15T12:52:41.560Z,72.21
2019-01-15T12:55:28.412Z,71.87
2019-01-15T12:58:15.905Z,71.58
2019-01-15T13:01:15.607Z,71.29
2019-01-15T13:04:03.675Z,70.74
2019-01-15T13:06:54.453Z,70.87
2019-01-15T13:09:33.052Z,71.23
2019-01-15T13:12:27.088Z,71.23
2019-01-15T13:15:06.154Z,70.71
2019-01-15T13:17:54.184Z,71.49
2019-01-15T13:20:45.855Z,71.39
2019-01-15T13:23:41.010Z,72.95
2019-01-15T13:26:47.271Z,72.60
2019-01-15T13:29:44.709Z,72.91
2019-01-15T13:32:26.760Z,71.83
2019-01-15T13:35:19.759Z,72.44
2019-01-15T13:38:23.202Z,72.41
2019-01-15T13:41:09.450Z,72.48
2019-01-15T13:43:57.521Z,73.41
2019-01-15T13:46:48.509Z,72.91
2019-01-15T13:49:46.453Z,73.73
2019-01-15T13:52:37.600Z,73.85
2019-01-15T13:55:38.447Z,73.62
2019-01-15T13:58:35.598Z,73.66
2019-01-15T14:01:38.331Z,73.78
2019-01-15T14:04:22.032Z,73.42
2019-01-15T14:07:08.776Z,73.79
2019-01-15T14:10:15.811Z,73.69
2019-01-15T14:13:10.016Z,73.32
2019-01-15T14:16:08.240Z,73.53
2019-01-15T14:18:59.362Z,73.28
2019-01-15T14:21:53.502Z,73.05
2019-01-15T14:24:41.553Z,73.33
2019-01-15T14:27:32.566Z,72.66
2019-01-15T14:30:28.743Z,73.63
2019-01-15T14:33:29.234Z,72.96
2019-01-15T14:36:08.548Z,73.23
2019-01-15T14:38:55.185Z,72.35
2019-01-15T14:41:42.356Z,72.87
2019-01-15T14:44:44.084Z,72.68
2019-01-15T14:47:38.576Z,72.93
2019-01-15T14:50:45.094Z,72.72
2019-01-15T14:53:27.907Z,73.08
2019-01-15T14:56:16.625Z,73.07
2019-01-15T14:58:59.964Z,73.11
2019-01-15T15:01:48.115Z,73.48
2019-01-15T15:04:35.076Z,72.75
2019-01-15T15:07:36.748Z,73.10
2019-01-15T15:10:28.485Z,73.09
2019-01-15T15:13:16.580Z,72.61
2019-01-15T15:16:03.796Z,73.19
2019-01-15T15:18:51.918Z,72.99
2019-01-15T15:21:34.969Z,72.66
2019-01-15T15:24:22.725Z,72.67
2019-01-15T15:27:19.926Z,72.73
2019-01-15T15:30:03.467Z,73.42
2019-01-15T15:32:51.568Z,72.96
2019-01-15T15:35:42.548Z,73.38
2019-01-15T15:38:32.226Z,74.04
2019-01-15T15:41:35.755Z,73.17
2019-01-15T15:44:18.217Z,73.55
2019-01-15T15:47:00.550Z,73.62
2019-01-15T15:49:51.425Z,73.80
2019-01-15T15:52:39.740Z,73.20
2019-01-15T15:55:26.634Z,73.59
2019-01-15T15:58:12.469Z,73.49
2019-01-15T16:00:57.936Z,73.63
2019-01-15T16:03:35.595Z,73.39
2019-01-15T16:06:26.741Z,73.78
2019-01-15T16:09:21.026Z,73.34
2019-01-15T16:12:14.873Z,73.79
2019-01-15T16:15:18.070Z,73.40
2019-01-15T16:18:06.156Z,73.29
2019-01-15T16:20:54.215Z,73.67
2019-01-15T16:23:51.241Z,73.93
2019-01-15T16:26:39.322Z,74.21
2019-01-15T16:29:30.373Z,73.75
2019-01-15T16:32:18.432Z,73.53
2019-01-15T16:35:02.210Z,74.23
2019-01-15T16:37:43.412Z,73.84
2019-01-15T16:40:30.127Z,74.10
2019-01-15T16:43:13.666Z,74.17
2019-01-15T16:46:09.537Z,74.02
2019-01-15T16:48:55.833Z,73.85
2019-01-15T16:51:36.715Z,74.20
2019-01-15T16:54:24.695Z,74.31
2019-01-15T16:57:11.845Z,74.35
2019-01-15T16:59:58.703Z,74.72
2019-01-15T17:02:46.778Z,74.52
2019-01-15T17:05:33.670Z,74.73
2019-01-15T17:08:24.842Z,74.39
2019-01-15T17:11:12.964Z,73.82
2019-01-15T17:13:59.946Z,74.37
2019-01-15T17:17:06.196Z,74.32
2019-01-15T17:19:46.522Z,74.33
2019-01-15T17:22:36.047Z,74.06
2019-01-15T17:25:33.518Z,74.45
2019-01-15T17:28:30.608Z,74.48
2019-01-15T17:31:17.511Z,74.05
2019-01-15T17:34:00.613Z,74.63
2019-01-15T17:36:46.071Z,74.38
2019-01-15T17:39:34.252Z,74.29
2019-01-15T17:42:20.921Z,74.34
2019-01-15T17:45:07.887Z,74.52
2019-01-15T17:47:56.046Z,74.57
2019-01-15T17:50:42.724Z,74.28
2019-01-15T17:53:46.122Z,74.45
2019-01-15T17:56:41.579Z,74.99
2019-01-15T17:59:35.794Z,75.20
2019-01-15T18:02:39.602Z,75.00
2019-01-15T18:05:30.429Z,74.44
2019-01-15T18:08:17.072Z,74.88
2019-01-15T18:11:03.958Z,74.51
2019-01-15T18:14:10.234Z,74.48
2019-01-15T18:16:56.919Z,74.55
2019-01-15T18:19:42.457Z,74.17
2019-01-15T18:22:33.271Z,74.49
2019-01-15T18:25:32.851Z,74.49
2019-01-15T18:28:39.234Z,74.60
2019-01-15T18:31:42.749Z,74.90
2019-01-15T18:34:19.855Z,74.15
2019-01-15T18:37:20.328Z,74.74
2019-01-15T18:40:17.616Z,74.62
2019-01-15T18:43:05.750Z,74.43
2019-01-15T18:45:53.886Z,74.70
2019-01-15T18:48:43.755Z,74.24
2019-01-15T18:51:31.120Z,73.99
2019-01-15T18:54:18.067Z,74.16
2019-01-15T18:57:06.173Z,73.81
2019-01-15T19:00:03.751Z,73.93
2019-01-15T19:02:57.058Z,74.47
2019-01-15T19:06:02.362Z,74.42
2019-01-15T19:08:45.801Z,75.05
2019-01-15T19:11:25.293Z,74.03
2019-01-15T19:14:16.548Z,74.12
2019-01-15T19:17:20.106Z,74.07
2019-01-15T19:20:00.939Z,74.01
2019-01-15T19:22:49.131Z,73.86
2019-01-15T19:25:35.761Z,73.97
2019-01-15T19:28:23.263Z,73.78
2019-01-15T19:31:17.444Z,73.84
2019-01-15T19:34:04.199Z,74.22
2019-01-15T19:36:50.578Z,74.28
2019-01-15T19:39:27.959Z,74.41
2019-01-15T19:42:25.135Z,74.36
2019-01-15T19:45:12.192Z,73.96
2019-01-15T19:47:59.210Z,74.28
2019-01-15T19:51:02.442Z,74.25
2019-01-15T19:53:45.934Z,74.64
2019-01-15T19:56:47.515Z,74.48
2019-01-15T19:59:25.705Z,74.54
2019-01-15T20:02:25.992Z,74.63
2019-01-15T20:05:04.439Z,74.55
2019-01-15T20:07:58.371Z,74.64
2019-01-15T20:10:49.558Z,74.60
2019-01-15T20:13:56.033Z,74.87
2019-01-15T20:16:43.881Z,75.16
2019-01-15T20:19:37.830Z,74.59
2019-01-15T20:22:44.135Z,74.68
2019-01-15T20:25:44.482Z,74.33
2019-01-15T20:28:31.282Z,74.38
2019-01-15T20:31:07.419Z,74.50
2019-01-15T20:33:55.480Z,74.62
2019-01-15T20:36:46.688Z,74.25
2019-01-15T20:39:35.635Z,74.64
2019-01-15T20:42:38.861Z,74.72
2019-01-15T20:45:29.842Z,74.49
2019-01-15T20:48:16.596Z,74.43
2019-01-15T20:51:07.730Z,74.63
2019-01-15T20:53:55.871Z,74.51
2019-01-15T20:56:43.971Z,74.98
2019-01-15T20:59:47.373Z,75.11
2019-01-15T21:02:35.410Z,75.04
2019-01-15T21:05:24.015Z,74.45
2019-01-15T21:08:25.269Z,75.21
2019-01-15T21:11:07.989Z,75.23
2019-01-15T21:13:54.687Z,74.95
2019-01-15T21:16:42.767Z,74.40
2019-01-15T21:19:29.700Z,74.92
2019-01-15T21:22:16.455Z,74.90
2019-01-15T21:25:16.826Z,75.22
2019-01-15T21:28:20.201Z,75.14
2019-01-15T21:31:13.929Z,75.00
2019-01-15T21:34:03.410Z,75.13
2019-01-15T21:36:55.223Z,75.21
2019-01-15T21:39:41.966Z,75.02
2019-01-15T21:42:46.950Z,75.32
2019-01-15T21:45:50.300Z,75.39
2019-01-15T21:48:36.739Z,75.14
2019-01-15T21:51:23.366Z,75.58
2019-01-15T21:54:18.220Z,75.27
2019-01-15T21:57:09.104Z,75.77
2019-01-15T22:00:07.231Z,75.79
2019-01-15T22:02:53.845Z,75.95
2019-01-15T22:05:45.143Z,75.98
2019-01-15T22:08:33.230Z,76.22
2019-01-15T22:11:10.198Z,76.15
2019-01-15T22:14:02.620Z,76.15
2019-01-15T22:16:56.968Z,76.19
2019-01-15T22:19:48.155Z,76.42
2019-01-15T22:22:36.182Z,76.77
2019-01-15T22:25:20.393Z,76.90
2019-01-15T22:28:04.803Z,76.89
2019-01-15T22:30:55.927Z,76.90
2019-01-15T22:33:48.357Z,77.06
2019-01-15T22:36:41.518Z,76.78
2019-01-15T22:39:44.608Z,77.09
2019-01-15T22:42:24.733Z,76.89
2019-01-15T22:45:12.810Z,77.30
2019-01-15T22:48:03.742Z,77.46
2019-01-15T22:50:50.430Z,77.64
2019-01-15T22:53:38.556Z,77.89
2019-01-15T22:56:19.838Z,77.97
2019-01-15T22:59:19.785Z,78.17
2019-01-15T23:01:56.732Z,77.97
2019-01-15T23:05:02.905Z,77.70
2019-01-15T23:07:56.756Z,77.51
2019-01-15T23:10:43.684Z,77.92
2019-01-15T23:13:46.840Z,78.34
2019-01-15T23:16:36.795Z,78.22
2019-01-15T23:19:20.704Z,78.06
2019-01-15T23:22:27.062Z,78.32
2019-01-15T23:25:13.801Z,78.18
2019-01-15T23:28:04.675Z,78.09
2019-01-15T23:30:52.658Z,77.91
2019-01-15T23:33:39.838Z,77.81
2019-01-15T23:36:36.747Z,77.96
2019-01-15T23:39:27.944Z,78.11
2019-01-15T23:42:10.215Z,78.39
2019-01-15T23:45:01.295Z,77.95
2019-01-15T23:47:52.947Z,78.20
2019-01-15T23:50:36.308Z,78.35
2019-01-15T23:53:24.343Z,78.57
2019-01-15T23:56:21.270Z,78.71
2019-01-15T23:59:04.242Z,78.62
